sensor_id;sensor_type;location;lat;lon;timestamp;P1;P2;P0
76330;PMS7003;65148;51.912;15.570;2024-01-11T00:14:21;97;74;44
76330;PMS7003;65148;51.912;15.570;2024-01-11T00:29:22;99;73;45
76330;PMS7003;65148;51.912;15.570;2024-01-11T00:44:23;98;76;45
76330;PMS7003;65148;51.912;15.570;2024-01-11T00:59:40;97;76;45
76330;PMS7003;65148;51.912;15.570;2024-01-11T01:14:41;102;74;37
76330;PMS7003;65148;51.912;15.570;2024-01-11T01:35:22;99;72;41
76330;PMS7003;65148;51.912;15.570;2024-01-11T01:50:23;92;70;43
76330;PMS7003;65148;51.912;15.570;2024-01-11T02:05:25;84;65;40
76330;PMS7003;65148;51.912;15.570;2024-01-11T03:37:01;62;49;28
76330;PMS7003;65148;51.912;15.570;2024-01-11T03:52:02;51;42;22
76330;PMS7003;65148;51.912;15.570;2024-01-11T04:07:28;31;25;10
76330;PMS7003;65148;51.912;15.570;2024-01-11T04:22:29;86;64;40
76330;PMS7003;65148;51.912;15.570;2024-01-11T04:37:30;85;64;38
76330;PMS7003;65148;51.912;15.570;2024-01-11T04:52:30;8;8;6
76330;PMS7003;65148;51.912;15.570;2024-01-11T05:07:59;20;18;13
76330;PMS7003;65148;51.912;15.570;2024-01-11T05:22:59;28;21;14
76330;PMS7003;65148;51.912;15.570;2024-01-11T05:38:01;33;29;19
76330;PMS7003;65148;51.912;15.570;2024-01-11T05:53:02;7;5;4
76330;PMS7003;65148;51.912;15.570;2024-01-11T06:08:29;33;27;15
76330;PMS7003;65148;51.912;15.570;2024-01-11T06:23:31;22;21;16
76330;PMS7003;65148;51.912;15.570;2024-01-11T06:38:31;20;20;13
76330;PMS7003;65148;51.912;15.570;2024-01-11T06:53:32;29;28;18
76330;PMS7003;65148;51.912;15.570;2024-01-11T07:08:59;44;36;19
76330;PMS7003;65148;51.912;15.570;2024-01-11T07:24:00;46;43;28
76330;PMS7003;65148;51.912;15.570;2024-01-11T07:39:00;30;30;20
76330;PMS7003;65148;51.912;15.570;2024-01-11T07:54:02;16;14;8
76330;PMS7003;65148;51.912;15.570;2024-01-11T08:09:29;33;29;18
76330;PMS7003;65148;51.912;15.570;2024-01-11T08:24:31;29;26;15
76330;PMS7003;65148;51.912;15.570;2024-01-11T08:39:32;29;24;16
76330;PMS7003;65148;51.912;15.570;2024-01-11T08:54:34;38;31;19
76330;PMS7003;65148;51.912;15.570;2024-01-11T09:10:03;28;25;17
76330;PMS7003;65148;51.912;15.570;2024-01-11T09:25:04;29;25;17
76330;PMS7003;65148;51.912;15.570;2024-01-11T09:40:08;19;19;12
76330;PMS7003;65148;51.912;15.570;2024-01-11T09:55:11;18;14;10
76330;PMS7003;65148;51.912;15.570;2024-01-11T10:10:32;13;11;11
76330;PMS7003;65148;51.912;15.570;2024-01-11T10:25:33;10;8;6
76330;PMS7003;65148;51.912;15.570;2024-01-11T10:40:36;10;9;7
76330;PMS7003;65148;51.912;15.570;2024-01-11T10:55:36;11;9;7
76330;PMS7003;65148;51.912;15.570;2024-01-11T11:11:03;13;13;9
76330;PMS7003;65148;51.912;15.570;2024-01-11T11:26:13;12;12;7
76330;PMS7003;65148;51.912;15.570;2024-01-11T11:41:20;18;17;13
76330;PMS7003;65148;51.912;15.570;2024-01-11T11:56:47;29;27;17
76330;PMS7003;65148;51.912;15.570;2024-01-11T12:11:48;33;28;19
76330;PMS7003;65148;51.912;15.570;2024-01-11T12:26:50;26;25;15
76330;PMS7003;65148;51.912;15.570;2024-01-11T12:41:52;33;29;16
76330;PMS7003;65148;51.912;15.570;2024-01-11T12:57:19;19;18;10
76330;PMS7003;65148;51.912;15.570;2024-01-11T13:12:20;23;22;11
76330;PMS7003;65148;51.912;15.570;2024-01-11T13:27:22;22;18;11
76330;PMS7003;65148;51.912;15.570;2024-01-11T13:42:23;18;15;13
76330;PMS7003;65148;51.912;15.570;2024-01-11T13:57:45;35;31;19
76330;PMS7003;65148;51.912;15.570;2024-01-11T14:12:47;27;23;13
76330;PMS7003;65148;51.912;15.570;2024-01-11T14:27:48;10;8;7
76330;PMS7003;65148;51.912;15.570;2024-01-11T14:42:49;33;32;16
76330;PMS7003;65148;51.912;15.570;2024-01-11T14:58:15;31;28;19
76330;PMS7003;65148;51.912;15.570;2024-01-11T15:13:17;23;22;15
76330;PMS7003;65148;51.912;15.570;2024-01-11T15:28:18;28;27;18
76330;PMS7003;65148;51.912;15.570;2024-01-11T15:43:19;33;27;17
76330;PMS7003;65148;51.912;15.570;2024-01-11T15:58:43;39;35;23
76330;PMS7003;65148;51.912;15.570;2024-01-11T16:13:44;36;34;20
76330;PMS7003;65148;51.912;15.570;2024-01-11T16:28:48;31;28;18
76330;PMS7003;65148;51.912;15.570;2024-01-11T16:43:49;23;21;14
76330;PMS7003;65148;51.912;15.570;2024-01-11T16:59:12;25;24;15
76330;PMS7003;65148;51.912;15.570;2024-01-11T17:14:16;40;35;24
76330;PMS7003;65148;51.912;15.570;2024-01-11T17:29:17;30;28;18
76330;PMS7003;65148;51.912;15.570;2024-01-11T17:44:18;32;28;22
76330;PMS7003;65148;51.912;15.570;2024-01-11T17:59:42;26;24;14
76330;PMS7003;65148;51.912;15.570;2024-01-11T18:14:44;34;31;21
76330;PMS7003;65148;51.912;15.570;2024-01-11T18:29:44;15;13;4
76330;PMS7003;65148;51.912;15.570;2024-01-11T18:44:45;23;20;15
76330;PMS7003;65148;51.912;15.570;2024-01-11T19:00:10;53;45;27
76330;PMS7003;65148;51.912;15.570;2024-01-11T19:15:11;29;28;19
76330;PMS7003;65148;51.912;15.570;2024-01-11T19:30:12;28;23;15
76330;PMS7003;65148;51.912;15.570;2024-01-11T19:45:14;49;42;27
76330;PMS7003;65148;51.912;15.570;2024-01-11T20:00:39;36;35;24
76330;PMS7003;65148;51.912;15.570;2024-01-11T20:15:41;24;24;17
76330;PMS7003;65148;51.912;15.570;2024-01-11T20:30:42;19;17;11
76330;PMS7003;65148;51.912;15.570;2024-01-11T20:45:44;23;20;12
76330;PMS7003;65148;51.912;15.570;2024-01-11T21:01:07;25;23;13
76330;PMS7003;65148;51.912;15.570;2024-01-11T21:16:08;18;17;11
76330;PMS7003;65148;51.912;15.570;2024-01-11T21:31:09;14;13;9
76330;PMS7003;65148;51.912;15.570;2024-01-11T21:46:10;12;12;9
76330;PMS7003;65148;51.912;15.570;2024-01-11T22:16:45;8;7;4
76330;PMS7003;65148;51.912;15.570;2024-01-11T22:31:47;20;19;10
76330;PMS7003;65148;51.912;15.570;2024-01-11T22:46:47;17;16;11
76330;PMS7003;65148;51.912;15.570;2024-01-11T23:02:10;10;9;5
76330;PMS7003;65148;51.912;15.570;2024-01-11T23:17:11;24;23;17
76330;PMS7003;65148;51.912;15.570;2024-01-11T23:32:12;22;21;14
76330;PMS7003;65148;51.912;15.570;2024-01-11T23:47:13;18;17;11
